Terminal Aerodrome Forecast
Issued by NWS Wakefield, VA

Home | Current Version | Previous Version | Text Only | Print | Product List | Glossary On
Versions: 1 2 3 4 5 6 7 8 9 10 11 12 13 14 15 16 17 18 19 20
000
FTUS41 KAKQ 280819 AAA
TAFRIC
TAF AMD
KRIC 280819Z 2808/2906 06003KT 1SM BR OVC002
      TEMPO 2808/2811 1/2SM FG
     FM281200 00000KT 2SM BR OVC004
     FM281400 17004KT P6SM SCT015 BKN025
     FM281800 04006KT P6SM BKN025
     FM282300 10004KT P6SM BKN070=

USA.gov is the U.S. government's official web portal to all federal, state and local government web resources and services.